Time;durP1;ratioP1;P1;durP2;ratioP2;P2;SDS_P1;SDS_P2;PMS_P1;PMS_P2;Temp;Humidity;BMP_temperature;BMP_pressure;BME280_temperature;BME280_humidity;BME280_pressure;Samples;Min_cycle;Max_cycle;Signal;HPM_P1;HPM_P2
2022/09/23 00:01:50;743899.00;2.48;1283.45;0.00;0.00;0.62;;;;;16.80;1.00;;;;;;2271793;61;2167;-88
2022/09/23 00:04:17;959094.00;3.20;1660.15;22756.00;0.08;40.04;;;;;16.70;1.00;;;;;;2251949;61;1224534;-87
2022/09/23 00:06:44;984186.00;3.28;1704.48;222.00;0.00;1.00;;;;;16.70;1.00;;;;;;2275479;61;1443;-88
2022/09/23 00:09:10;833894.00;2.78;1440.30;0.00;0.00;0.62;;;;;16.80;1.00;;;;;;2276359;61;1691;-90
2022/09/23 00:11:38;1027810.00;3.43;1781.79;14974.00;0.05;26.57;;;;;17.00;1.00;;;;;;2276027;61;1311;-89
2022/09/23 00:14:06;1527827.00;5.09;2695.59;0.00;0.00;0.62;;;;;16.50;1.00;;;;;;2283323;56;3733;-89
2022/09/23 00:16:35;732044.00;2.44;1262.85;0.00;0.00;0.62;;;;;16.60;1.00;;;;;;2276036;61;1935;-88
2022/09/23 00:19:03;866945.00;2.89;1498.14;0.00;0.00;0.62;;;;;16.70;1.00;;;;;;2275990;61;1549;-89
2022/09/23 00:21:30;1116251.00;3.72;1939.51;0.00;0.00;0.62;;;;;16.90;1.00;;;;;;2275554;61;1245;-89
2022/09/23 00:23:57;877294.00;2.92;1516.28;0.00;0.00;0.62;;;;;16.90;1.00;;;;;;2272299;61;934;-87
2022/09/23 00:26:25;976212.00;3.25;1690.39;36669.00;0.12;64.12;;;;;16.80;1.00;;;;;;2272262;61;943;-87
2022/09/23 00:28:52;820063.00;2.73;1416.14;0.00;0.00;0.62;;;;;16.80;1.00;;;;;;2272055;61;1038;-88
2022/09/23 00:31:23;902173.00;3.01;1559.94;0.00;0.00;0.62;;;;;16.60;1.00;;;;;;2272333;61;1377;-88
2022/09/23 00:33:53;1015257.00;3.38;1759.51;0.00;0.00;0.62;;;;;16.60;1.00;;;;;;2272251;61;1734;-88
2022/09/23 00:36:20;636129.00;2.12;1096.65;0.00;0.00;0.62;;;;;16.60;1.00;;;;;;2272179;61;2008;-90
2022/09/23 00:38:47;117886896.00;392.96;66363612.00;0.00;0.00;0.62;;;;;16.30;1.00;;;;;;2272037;61;1620;-88
2022/09/23 00:41:15;827188.00;2.76;1428.58;45160.00;0.15;78.81;;;;;16.40;1.00;;;;;;2272088;61;2188;-88
2022/09/23 00:43:45;1051996.00;3.51;1824.78;0.00;0.00;0.62;;;;;16.20;1.00;;;;;;2271933;61;1050;-88
2022/09/23 00:46:17;684014.00;2.28;1179.53;0.00;0.00;0.62;;;;;16.20;1.00;;;;;;2272276;61;2085;-88
2022/09/23 00:48:47;802682.00;2.68;1385.80;0.00;0.00;0.62;;;;;16.20;1.00;;;;;;2272124;61;1075;-89
2022/09/23 00:51:18;864612.00;2.88;1494.05;601.00;0.00;1.66;;;;;16.10;1.00;;;;;;2272254;61;1555;-89
2022/09/23 00:53:46;828250.00;2.76;1430.44;0.00;0.00;0.62;;;;;15.90;1.00;;;;;;2272010;61;1439;-88
2022/09/23 00:56:15;729187.00;2.43;1257.89;0.00;0.00;0.62;;;;;15.90;1.00;;;;;;2271973;61;1910;-87
2022/09/23 00:58:44;1016190.00;3.39;1761.17;0.00;0.00;0.62;;;;;16.10;1.00;;;;;;2272005;61;1058;-87
2022/09/23 01:01:13;1072587.00;3.58;1861.47;0.00;0.00;0.62;;;;;16.30;1.00;;;;;;2272186;61;1035;-88
2022/09/23 01:03:42;846721.00;2.82;1462.73;0.00;0.00;0.62;;;;;16.40;1.00;;;;;;2272004;61;1270;-88
2022/09/23 01:06:12;1196042.00;3.99;2083.07;0.00;0.00;0.62;;;;;16.50;1.00;;;;;;2272014;61;918;-88
2022/09/23 01:08:39;787178.00;2.62;1358.77;0.00;0.00;0.62;;;;;16.40;1.00;;;;;;2272276;61;1073;-88
2022/09/23 01:11:22;818461.00;2.73;1413.34;48071.00;0.16;83.85;;;;;16.40;1.00;;;;;;2272070;61;1784;-87
2022/09/23 01:14:01;840983.00;2.80;1452.69;0.00;0.00;0.62;;;;;16.50;1.00;;;;;;2272096;61;1535;-86
2022/09/23 01:16:38;766501.00;2.56;1322.76;0.00;0.00;0.62;;;;;16.60;1.00;;;;;;2272019;61;2001;-89
2022/09/23 01:19:19;726658.00;2.42;1253.50;0.00;0.00;0.62;;;;;16.60;1.00;;;;;;2271904;61;2063;-87
2022/09/23 01:21:58;665432.00;2.22;1147.34;0.00;0.00;0.62;;;;;16.30;1.00;;;;;;2272127;61;1446;-86
2022/09/23 01:24:46;705240.00;2.35;1216.33;0.00;0.00;0.62;;;;;16.20;1.00;;;;;;2272081;61;1011;-87
2022/09/23 01:27:40;564727.00;1.88;973.35;0.00;0.00;0.62;;;;;16.20;1.00;;;;;;2272166;61;1028;-87
2022/09/23 01:30:25;756149.00;2.52;1304.75;0.00;0.00;0.62;;;;;15.50;1.00;;;;;;2272523;61;1603;-88
2022/09/23 01:33:04;750691.00;2.50;1295.26;0.00;0.00;0.62;;;;;15.20;1.00;;;;;;2270248;61;1292;-86
2022/09/23 01:35:42;762320.00;2.54;1315.49;0.00;0.00;0.62;;;;;15.00;1.00;;;;;;2272824;61;1907;-89
2022/09/23 01:38:19;755429.00;2.52;1303.50;53429.00;0.18;93.12;;;;;14.90;1.00;;;;;;2272754;61;1090;-89
2022/09/23 01:40:53;915663.00;3.05;1583.65;0.00;0.00;0.62;;;;;14.90;1.00;;;;;;2272510;61;1716;-88
2022/09/23 01:43:27;736264.00;2.45;1270.18;0.00;0.00;0.62;;;;;14.80;1.00;;;;;;2272507;61;1416;-89
2022/09/23 01:45:58;691044.00;2.30;1191.71;0.00;0.00;0.62;;;;;14.80;1.00;;;;;;2272534;61;915;-88
2022/09/23 01:48:33;781895.00;2.61;1349.57;0.00;0.00;0.62;;;;;14.40;1.00;;;;;;2272710;61;1015;-91
2022/09/23 01:51:09;924250.00;3.08;1598.75;0.00;0.00;0.62;;;;;14.40;1.00;;;;;;2272598;61;1018;-87
2022/09/23 01:53:44;789961.00;2.63;1363.62;0.00;0.00;0.62;;;;;14.40;1.00;;;;;;2287968;55;3820;-89
2022/09/23 02:01:21;1408217.00;4.69;2471.57;0.00;0.00;0.62;;;;;14.30;1.00;;;;;;2269977;61;1299;-89
2022/09/23 02:06:30;1657708.00;5.53;2943.54;0.00;0.00;0.62;;;;;15.10;1.00;;;;;;2288616;40;3537;-88
2022/09/23 02:09:00;665350.00;2.22;1147.20;0.00;0.00;0.62;;;;;15.00;1.00;;;;;;2276404;61;1468;-88
2022/09/23 02:11:28;514932.00;1.72;887.54;0.00;0.00;0.62;;;;;14.70;1.00;;;;;;2276210;61;1355;-87
2022/09/23 02:14:03;593689.00;1.98;1023.32;0.00;0.00;0.62;;;;;14.30;1.00;;;;;;2272408;61;1741;-86
2022/09/23 02:16:38;980965.00;3.27;1698.79;0.00;0.00;0.62;;;;;14.00;1.00;;;;;;2272561;61;1943;-88
2022/09/23 02:19:10;535172.00;1.78;922.40;0.00;0.00;0.62;;;;;13.80;1.00;;;;;;2272601;61;1777;-87
2022/09/23 02:24:12;1963460.00;6.54;3549.56;0.00;0.00;0.62;;;;;14.00;1.00;;;;;;2278284;61;1367;-88
2022/09/23 02:26:49;974495.00;3.25;1687.35;0.00;0.00;0.62;;;;;14.10;1.00;;;;;;2276555;61;1553;-90
2022/09/23 02:29:21;506797.00;1.69;873.53;0.00;0.00;0.62;;;;;14.20;1.00;;;;;;2276439;61;1098;-91
2022/09/23 02:34:26;1321641.00;4.41;2311.77;0.00;0.00;0.62;;;;;14.30;1.00;;;;;;2278209;61;1384;-87
2022/09/23 02:37:07;661557.00;2.21;1140.64;0.00;0.00;0.62;;;;;14.10;1.00;;;;;;2276614;61;1915;-88
2022/09/23 02:44:33;1849090.00;6.16;3318.92;0.00;0.00;0.62;;;;;14.00;1.00;;;;;;2277915;61;1438;-88
2022/09/23 02:47:00;785022.00;2.62;1355.01;0.00;0.00;0.62;;;;;13.90;1.00;;;;;;2276457;61;1117;-89
2022/09/23 02:49:30;1044714.00;3.48;1811.83;0.00;0.00;0.62;;;;;13.60;1.00;;;;;;2276549;61;922;-87
2022/09/23 02:54:32;1157215.00;3.86;2013.05;0.00;0.00;0.62;;;;;13.90;1.00;;;;;;2278992;61;1331;-88
2022/09/23 02:57:02;643432.00;2.14;1109.27;0.00;0.00;0.62;;;;;13.90;1.00;;;;;;2281310;40;3408;-89
2022/09/23 02:59:32;1102719.00;3.68;1915.29;0.00;0.00;0.62;;;;;14.00;1.00;;;;;;2276386;61;1684;-88
2022/09/23 03:04:46;932545.00;3.11;1613.35;0.00;0.00;0.62;;;;;14.20;1.00;;;;;;520302;40;3187;-88
2022/09/23 03:07:18;1191421.00;3.97;2074.72;222.00;0.00;1.00;;;;;14.60;1.00;;;;;;2276241;61;1177;-88
2022/09/23 03:12:34;1377314.00;4.59;2414.31;0.00;0.00;0.62;;;;;14.20;1.00;;;;;;2274275;61;1448;-86
2022/09/23 03:15:18;608846.00;2.03;1049.50;0.00;0.00;0.62;;;;;14.40;1.00;;;;;;2272344;61;1023;-88
2022/09/23 03:22:54;2255024.00;7.52;4161.80;11572.00;0.04;20.67;;;;;13.50;1.00;;;;;;2269720;61;1340;-89
2022/09/23 03:25:25;951684.00;3.17;1647.08;12281.00;0.04;21.90;;;;;13.20;1.00;;;;;;2268201;61;1567;-90
2022/09/23 03:27:57;1080569.00;3.60;1875.71;8443.00;0.03;15.25;;;;;13.20;1.00;;;;;;2268324;61;1011;-89
2022/09/23 03:48:24;1849219.00;6.16;3319.18;0.00;0.00;0.62;;;;;14.40;1.00;;;;;;1496165;40;3789;-91
2022/09/23 03:50:51;1134006.00;3.78;1971.35;26467.00;0.09;46.47;;;;;14.40;1.00;;;;;;2271848;61;1720;-88
2022/09/23 03:53:20;795422.00;2.65;1373.14;0.00;0.00;0.62;;;;;14.10;1.00;;;;;;2276701;55;3834;-87
2022/09/23 03:55:47;813833.00;2.71;1405.26;0.00;0.00;0.62;;;;;14.00;1.00;;;;;;2276290;61;1998;-88
2022/09/23 04:00:43;1233031.00;4.11;2150.06;0.00;0.00;0.62;;;;;14.00;1.00;;;;;;2273772;61;1341;-88
2022/09/23 04:03:10;860631.00;2.87;1487.08;0.00;0.00;0.62;;;;;14.10;1.00;;;;;;2272265;61;1348;-89
2022/09/23 04:05:39;987465.00;3.29;1710.28;87023.00;0.29;151.17;;;;;14.10;1.00;;;;;;2272191;61;1593;-89
2022/09/23 04:08:06;528532.00;1.76;910.96;0.00;0.00;0.62;;;;;14.10;1.00;;;;;;2272372;61;1881;-90
2022/09/23 04:10:33;1005061.00;3.35;1741.44;0.00;0.00;0.62;;;;;14.30;1.00;;;;;;2272210;61;1609;-89
2022/09/23 04:13:00;833729.00;2.78;1440.01;0.00;0.00;0.62;;;;;14.50;1.00;;;;;;2272137;61;2222;-89
2022/09/23 04:15:27;1067889.00;3.56;1853.09;67578.00;0.23;117.57;;;;;14.50;1.00;;;;;;2272194;61;1182;-88
2022/09/23 04:17:54;1272083.00;4.24;2221.10;0.00;0.00;0.62;;;;;14.90;1.00;;;;;;2282932;56;3657;-87
2022/09/23 04:20:21;1163632.00;3.88;2024.60;0.00;0.00;0.62;;;;;14.80;1.00;;;;;;2276019;61;931;-87
2022/09/23 04:22:49;705171.00;2.35;1216.21;0.00;0.00;0.62;;;;;15.00;1.00;;;;;;2273657;61;1467;-88
2022/09/23 04:25:16;734576.00;2.45;1267.25;0.00;0.00;0.62;;;;;15.30;1.00;;;;;;2272196;61;965;-90
2022/09/23 04:27:43;1423292.00;4.74;2499.59;213971.00;0.71;369.97;;;;;15.00;1.00;;;;;;2272311;61;952;-92
2022/09/23 04:30:11;930035.00;3.10;1608.93;0.00;0.00;0.62;;;;;14.60;1.00;;;;;;2272141;61;928;-88
2022/09/23 04:32:38;837860.00;2.79;1447.23;0.00;0.00;0.62;;;;;14.60;1.00;;;;;;2272180;61;1480;-88
2022/09/23 04:35:07;740239.00;2.47;1277.09;0.00;0.00;0.62;;;;;14.70;1.00;;;;;;2272242;61;1584;-88
2022/09/23 04:37:34;890938.00;2.97;1540.21;0.00;0.00;0.62;;;;;14.90;1.00;;;;;;2272212;61;1998;-89
2022/09/23 04:40:02;888575.00;2.96;1536.06;0.00;0.00;0.62;;;;;15.10;1.00;;;;;;2272135;61;1049;-88
2022/09/23 04:42:30;119599152.00;398.66;69300232.00;0.00;0.00;0.62;;;;;15.20;1.00;;;;;;2272115;61;1395;-87
2022/09/23 04:44:56;659264.00;2.20;1136.67;0.00;0.00;0.62;;;;;14.80;1.00;;;;;;2272171;61;828;-90
2022/09/23 04:47:24;788423.00;2.63;1360.94;0.00;0.00;0.62;;;;;14.60;1.00;;;;;;2272154;61;972;-88
2022/09/23 04:49:51;842916.00;2.81;1456.07;0.00;0.00;0.62;;;;;14.60;1.00;;;;;;2272105;61;1102;-87
2022/09/23 04:52:18;504783.00;1.68;870.06;0.00;0.00;0.62;;;;;14.70;1.00;;;;;;2272145;61;1396;-88
2022/09/23 04:54:45;117823664.00;392.75;66256776.00;0.00;0.00;0.62;;;;;14.70;1.00;;;;;;2272096;61;908;-88
2022/09/23 04:57:14;998651.00;3.33;1730.08;0.00;0.00;0.62;;;;;15.00;1.00;;;;;;2272066;61;1913;-89
2022/09/23 04:59:41;659758.00;2.20;1137.52;0.00;0.00;0.62;;;;;15.00;1.00;;;;;;2272041;61;933;-88
2022/09/23 05:02:10;879251.00;2.93;1519.71;0.00;0.00;0.62;;;;;14.80;1.00;;;;;;2272060;61;1622;-88
2022/09/23 05:04:36;1060911.00;3.54;1840.66;0.00;0.00;0.62;;;;;15.00;1.00;;;;;;2272402;61;2363;-88
2022/09/23 05:07:04;691583.00;2.31;1192.65;0.00;0.00;0.62;;;;;15.10;1.00;;;;;;2272871;61;1130;-88
2022/09/23 05:09:31;880173.00;2.93;1521.32;0.00;0.00;0.62;;;;;15.10;1.00;;;;;;2272861;61;945;-89
2022/09/23 05:14:28;1165484.00;3.88;2027.94;0.00;0.00;0.62;;;;;14.00;1.00;;;;;;2279045;61;1436;-89
2022/09/23 05:16:55;864539.00;2.88;1493.92;0.00;0.00;0.62;;;;;13.50;1.00;;;;;;2276838;61;1921;-88
2022/09/23 05:19:22;849189.00;2.83;1467.05;0.00;0.00;0.62;;;;;13.50;1.00;;;;;;2276935;61;943;-88
2022/09/23 05:21:49;759943.00;2.53;1311.35;0.00;0.00;0.62;;;;;13.00;1.00;;;;;;2276892;61;1362;-88
2022/09/23 05:24:16;620849.00;2.07;1070.23;0.00;0.00;0.62;;;;;13.00;1.00;;;;;;2276919;61;999;-85
2022/09/23 05:26:43;520475.00;1.73;897.08;0.00;0.00;0.62;;;;;12.50;1.00;;;;;;2276775;61;1131;-90
2022/09/23 05:29:10;930453.00;3.10;1609.67;0.00;0.00;0.62;;;;;12.10;1.00;;;;;;2276714;61;1047;-88
2022/09/23 05:31:38;803907.00;2.68;1387.94;0.00;0.00;0.62;;;;;11.90;1.00;;;;;;2276769;61;1267;-85
2022/09/23 05:34:06;834359.00;2.78;1441.11;148.00;0.00;0.88;;;;;11.80;1.00;;;;;;2276782;61;1528;-86
2022/09/23 05:36:36;864384.00;2.88;1493.65;0.00;0.00;0.62;;;;;11.50;1.00;;;;;;2278479;55;3778;-87
2022/09/23 05:39:03;637111.00;2.12;1098.34;0.00;0.00;0.62;;;;;11.80;1.00;;;;;;2276755;61;896;-87
2022/09/23 05:41:32;780109.00;2.60;1346.46;0.00;0.00;0.62;;;;;12.00;1.00;;;;;;2276428;61;1302;-87
2022/09/23 05:43:59;835221.00;2.78;1442.62;0.00;0.00;0.62;;;;;12.20;1.00;;;;;;2272516;61;1727;-88
2022/09/23 05:46:28;665110.00;2.22;1146.79;0.00;0.00;0.62;;;;;12.70;1.00;;;;;;2272740;61;2173;-87
2022/09/23 05:48:58;758924.00;2.53;1309.58;0.00;0.00;0.62;;;;;12.60;1.00;;;;;;2272690;61;1023;-88
2022/09/23 05:54:01;799351.00;2.66;1379.99;0.00;0.00;0.62;;;;;13.00;1.00;;;;;;2278221;61;1387;-88
2022/09/23 06:06:29;1329315.00;4.43;2325.86;0.00;0.00;0.62;;;;;16.80;1.00;;;;;;2273392;55;3625;-87
2022/09/23 06:58:55;1288741.00;4.30;2251.51;0.00;0.00;0.62;;;;;19.90;1.00;;;;;;828474;56;3581;-88
2022/09/23 07:01:23;1019959.00;3.40;1767.85;0.00;0.00;0.62;;;;;19.60;1.00;;;;;;2280302;41;3627;-86
2022/09/23 07:11:22;1561488.00;5.20;2759.36;580.00;0.00;1.63;;;;;19.50;1.00;;;;;;2275104;61;1354;-89
2022/09/23 08:46:41;1425401.00;4.75;2503.52;21901.00;0.07;38.56;;;;;19.50;1.00;;;;;;2285652;40;3513;-89
2022/09/23 09:34:25;1334763.00;4.45;2335.87;62229.00;0.21;108.33;;;;;20.70;1.00;;;;;;2274641;61;1332;-89
2022/09/23 10:47:36;910856.00;3.04;1575.19;34710.00;0.12;60.73;;;;;21.20;1.00;;;;;;2276965;55;3713;-88
2022/09/23 10:55:17;1220456.00;4.07;2127.25;0.00;0.00;0.62;;;;;21.80;1.00;;;;;;2271190;61;1300;-91
2022/09/23 11:07:55;1403708.00;4.68;2463.20;91934.00;0.31;159.65;;;;;22.60;1.00;;;;;;2266977;61;1036;-92
2022/09/23 11:10:54;532729.00;1.78;918.19;0.00;0.00;0.62;;;;;22.70;1.00;;;;;;2265025;61;1625;-89
2022/09/23 11:16:02;1013578.00;3.38;1756.53;0.00;0.00;0.62;;;;;22.70;1.00;;;;;;2270553;61;1333;-91
2022/09/23 11:18:53;612654.00;2.04;1056.07;0.00;0.00;0.62;;;;;22.60;1.00;;;;;;2268975;61;2007;-91
2022/09/23 11:44:51;1652547.00;5.51;2933.59;0.00;0.00;0.62;;;;;22.10;1.00;;;;;;2278650;61;1079;-90
2022/09/23 12:00:06;1331545.00;4.44;2329.95;149834.00;0.50;259.52;;;;;22.80;1.00;;;;;;2278534;61;951;-89
2022/09/23 12:05:11;1621646.00;5.41;2874.18;55440.00;0.18;96.59;;;;;22.80;1.00;;;;;;2279159;61;1198;-91
2022/09/23 12:07:50;789892.00;2.63;1363.50;59821.00;0.20;104.17;;;;;23.10;1.00;;;;;;2276272;61;1191;-90
2022/09/23 12:10:18;597835.00;1.99;1030.48;3320.00;0.01;6.37;;;;;22.90;1.00;;;;;;2276329;61;1627;-88
2022/09/23 12:12:55;574358.00;1.91;989.96;0.00;0.00;0.62;;;;;22.80;1.00;;;;;;2277947;55;3792;-88
2022/09/23 12:18:16;1190403.00;3.97;2072.88;0.00;0.00;0.62;;;;;22.70;1.00;;;;;;2278444;61;1874;-90
2022/09/23 12:25:52;1446700.00;4.82;2543.22;0.00;0.00;0.62;;;;;23.50;1.00;;;;;;2277842;61;1423;-89
2022/09/23 12:40:53;1714404.00;5.71;3053.45;46621.00;0.16;81.34;;;;;22.80;1.00;;;;;;2266395;61;1021;-91
2022/09/23 13:36:18;1477845.00;4.93;2601.50;0.00;0.00;0.62;;;;;23.90;1.00;;;;;;2272924;55;3613;-88
2022/09/23 14:03:56;1111313.00;3.70;1930.67;0.00;0.00;0.62;;;;;24.90;1.00;;;;;;2278901;61;1040;-89
2022/09/23 14:06:23;572953.00;1.91;987.54;13726.00;0.05;24.40;;;;;25.20;1.00;;;;;;2277349;61;1107;-91
2022/09/23 14:08:51;858619.00;2.86;1483.55;62428.00;0.21;108.67;;;;;25.20;1.00;;;;;;2299126;56;3905;-91
2022/09/23 14:11:21;889225.00;2.96;1537.20;0.00;0.00;0.62;;;;;24.90;1.00;;;;;;2283955;56;4000;-89
2022/09/23 14:54:41;1814345.00;6.05;3249.82;132317.00;0.44;229.32;;;;;24.50;1.00;;;;;;1577698;56;3571;-89
2022/09/23 14:57:28;518819.00;1.73;894.23;0.00;0.00;0.62;;;;;24.50;1.00;;;;;;2264400;61;1987;-89
2022/09/23 15:00:00;540571.00;1.80;931.71;0.00;0.00;0.62;;;;;24.30;1.00;;;;;;2264538;61;1547;-89
2022/09/23 15:02:33;122148760.00;407.16;73831704.00;165344.00;0.55;286.25;;;;;24.40;1.00;;;;;;2262550;61;1455;-88
2022/09/23 15:05:15;557115.00;1.86;960.23;14622.00;0.05;25.96;;;;;24.00;1.00;;;;;;2260457;61;1330;-89
2022/09/23 15:07:47;369152.00;1.23;636.78;0.00;0.00;0.62;;;;;23.00;1.00;;;;;;2260521;61;1067;-88
2022/09/23 15:10:22;708322.00;2.36;1221.67;0.00;0.00;0.62;;;;;22.60;1.00;;;;;;2260468;61;1125;-85
2022/09/23 15:12:52;429789.00;1.43;741.02;0.00;0.00;0.62;;;;;21.90;1.00;;;;;;2260307;61;1451;-87
2022/09/23 15:15:28;596913.00;1.99;1028.89;0.00;0.00;0.62;;;;;21.70;1.00;;;;;;2260374;61;1434;-88
2022/09/23 15:18:02;544727.00;1.82;938.87;0.00;0.00;0.62;;;;;21.80;1.00;;;;;;2260368;61;1935;-87
2022/09/23 15:20:30;517240.00;1.72;891.51;0.00;0.00;0.62;;;;;21.80;1.00;;;;;;2260470;61;1065;-87
2022/09/23 15:22:57;271904.00;0.91;469.62;0.00;0.00;0.62;;;;;21.90;1.00;;;;;;2260290;61;1499;-88
2022/09/23 15:25:32;1144433.00;3.81;1990.07;80424.00;0.27;139.77;;;;;21.70;1.00;;;;;;2260363;61;1067;-87
2022/09/23 15:28:15;477964.00;1.59;823.89;0.00;0.00;0.62;;;;;21.50;1.00;;;;;;2260420;61;1129;-86
2022/09/23 15:30:42;530454.00;1.77;914.27;0.00;0.00;0.62;;;;;21.50;1.00;;;;;;2260500;61;1160;-86
2022/09/23 15:33:12;397372.00;1.32;685.29;0.00;0.00;0.62;;;;;21.30;1.00;;;;;;2260458;61;1384;-85
2022/09/23 15:35:45;503838.00;1.68;868.43;0.00;0.00;0.62;;;;;21.20;1.00;;;;;;2260331;61;1453;-86
2022/09/23 15:38:12;698322.00;2.33;1204.33;0.00;0.00;0.62;;;;;21.10;1.00;;;;;;2260395;61;1981;-87
2022/09/23 15:40:41;874314.00;2.91;1511.05;55214.00;0.18;96.20;;;;;21.00;1.00;;;;;;2260443;61;1147;-86
2022/09/23 15:43:15;453568.00;1.51;781.92;0.00;0.00;0.62;;;;;21.10;1.00;;;;;;2260361;61;1384;-87
2022/09/23 15:45:46;467315.00;1.56;805.57;0.00;0.00;0.62;;;;;20.90;1.00;;;;;;2260312;61;1481;-87
2022/09/23 15:48:16;487174.00;1.62;839.74;0.00;0.00;0.62;;;;;20.90;1.00;;;;;;2260239;61;1101;-86
2022/09/23 15:50:44;589179.00;1.96;1015.54;0.00;0.00;0.62;;;;;20.90;1.00;;;;;;2260300;61;1111;-85
2022/09/23 15:53:16;530638.00;1.77;914.59;0.00;0.00;0.62;;;;;21.00;1.00;;;;;;2260140;61;1282;-86
2022/09/23 15:55:45;418124.00;1.39;720.96;0.00;0.00;0.62;;;;;21.00;1.00;;;;;;2260295;61;1120;-85
2022/09/23 15:58:12;489772.00;1.63;844.22;0.00;0.00;0.62;;;;;21.00;1.00;;;;;;2260267;61;1996;-84
2022/09/23 16:00:39;637261.00;2.12;1098.60;26978.00;0.09;47.35;;;;;21.00;1.00;;;;;;2260341;61;1092;-87
2022/09/23 16:03:06;597768.00;1.99;1030.37;0.00;0.00;0.62;;;;;21.20;1.00;;;;;;2260147;61;1392;-86
2022/09/23 16:05:36;584393.00;1.95;1007.28;0.00;0.00;0.62;;;;;21.40;1.00;;;;;;2260059;61;972;-85
2022/09/23 16:08:04;588613.00;1.96;1014.56;0.00;0.00;0.62;;;;;21.10;1.00;;;;;;2260260;61;1147;-84
2022/09/23 16:10:31;725259.00;2.42;1251.07;139825.00;0.47;242.27;;;;;20.70;1.00;;;;;;2256316;61;1081;-86
2022/09/23 16:13:02;459495.00;1.53;792.12;0.00;0.00;0.62;;;;;20.40;1.00;;;;;;2256255;61;1418;-85
2022/09/23 16:15:31;542677.00;1.81;935.34;0.00;0.00;0.62;;;;;20.50;1.00;;;;;;2259225;61;1005;-85
2022/09/23 16:17:58;322782.00;1.08;557.08;0.00;0.00;0.62;;;;;20.90;1.00;;;;;;2260214;61;1999;-86
2022/09/23 16:20:28;378064.00;1.26;652.10;0.00;0.00;0.62;;;;;21.00;1.00;;;;;;2260325;61;1118;-85
2022/09/23 16:22:58;370204.00;1.23;638.59;0.00;0.00;0.62;;;;;20.60;1.00;;;;;;2260153;61;1353;-86
2022/09/23 16:25:30;646011.00;2.15;1113.74;0.00;0.00;0.62;;;;;20.50;1.00;;;;;;2260304;61;1122;-86
2022/09/23 16:27:59;772636.00;2.58;1333.44;0.00;0.00;0.62;;;;;20.40;1.00;;;;;;2260203;61;1149;-85
2022/09/23 16:30:27;1305277.00;4.35;2281.77;0.00;0.00;0.62;;;;;20.50;1.00;;;;;;2260280;61;1027;-85
2022/09/23 16:32:55;119140200.00;397.13;68504768.00;0.00;0.00;0.62;;;;;20.80;1.00;;;;;;2260253;61;1367;-86
2022/09/23 16:35:23;495726.00;1.65;854.47;0.00;0.00;0.62;;;;;21.00;1.00;;;;;;2260097;61;976;-86
2022/09/23 16:37:51;335522.00;1.12;578.98;0.00;0.00;0.62;;;;;21.10;1.00;;;;;;2260171;61;1918;-87
2022/09/23 16:40:20;833307.00;2.78;1439.27;0.00;0.00;0.62;;;;;21.20;1.00;;;;;;2260198;61;1307;-85
2022/09/23 16:42:47;583504.00;1.95;1005.75;0.00;0.00;0.62;;;;;21.10;1.00;;;;;;2260163;61;1404;-85
2022/09/23 16:45:17;525617.00;1.75;905.94;35274.00;0.12;61.71;;;;;21.00;1.00;;;;;;2260170;61;1107;-85
2022/09/23 16:47:46;403111.00;1.34;695.15;0.00;0.00;0.62;;;;;21.00;1.00;;;;;;2260196;61;1000;-85
2022/09/23 16:50:14;635700.00;2.12;1095.90;49579.00;0.17;86.46;;;;;21.00;1.00;;;;;;2260160;61;1199;-86
2022/09/23 16:52:41;449301.00;1.50;774.58;0.00;0.00;0.62;;;;;21.00;1.00;;;;;;2260176;61;1498;-86
2022/09/23 16:55:10;408419.00;1.36;704.28;0.00;0.00;0.62;;;;;21.10;1.00;;;;;;2260121;61;1103;-87
2022/09/23 16:57:37;366240.00;1.22;631.77;0.00;0.00;0.62;;;;;21.00;1.00;;;;;;2260264;61;1047;-86
2022/09/23 17:05:37;606519.00;2.02;1045.48;0.00;0.00;0.62;;;;;20.80;1.00;;;;;;2259994;61;706;-83
2022/09/23 17:08:06;406944.00;1.36;701.74;0.00;0.00;0.62;;;;;20.50;1.00;;;;;;2260031;61;1167;-85
2022/09/23 17:10:33;672430.00;2.24;1159.46;0.00;0.00;0.62;;;;;20.40;1.00;;;;;;2260202;61;1143;-85
2022/09/23 17:13:00;421470.00;1.40;726.72;17730.00;0.06;31.34;;;;;20.40;1.00;;;;;;2260065;61;1420;-84
2022/09/23 17:15:27;623805.00;2.08;1075.34;0.00;0.00;0.62;;;;;20.60;1.00;;;;;;2260018;61;1068;-85
2022/09/23 17:17:55;509118.00;1.70;877.52;0.00;0.00;0.62;;;;;20.50;1.00;;;;;;2260137;61;1989;-86
2022/09/23 17:20:22;613970.00;2.05;1058.35;0.00;0.00;0.62;;;;;20.50;1.00;;;;;;2260005;61;973;-85
2022/09/23 17:22:49;592894.00;1.98;1021.95;11283.00;0.04;20.17;;;;;20.50;1.00;;;;;;2260103;61;1380;-85
2022/09/23 17:25:15;407199.00;1.36;702.18;0.00;0.00;0.62;;;;;20.70;1.00;;;;;;2260095;61;1092;-84
2022/09/23 17:27:42;484002.00;1.61;834.29;0.00;0.00;0.62;;;;;20.80;1.00;;;;;;2260022;61;1102;-84
2022/09/23 17:30:10;473476.00;1.58;816.17;0.00;0.00;0.62;;;;;20.60;1.00;;;;;;2259988;61;1087;-84
2022/09/23 17:32:37;465988.00;1.55;803.29;0.00;0.00;0.62;;;;;20.60;1.00;;;;;;2259949;61;1409;-85
2022/09/23 17:35:06;325368.00;1.08;561.52;0.00;0.00;0.62;;;;;20.60;1.00;;;;;;2260063;61;1092;-85
2022/09/23 17:37:33;460250.00;1.53;793.41;0.00;0.00;0.62;;;;;20.50;1.00;;;;;;2260172;61;1131;-86
2022/09/23 17:40:00;619557.00;2.07;1068.00;0.00;0.00;0.62;;;;;20.30;1.00;;;;;;2259959;61;2015;-85
2022/09/23 17:42:27;893744.00;2.98;1545.14;207944.00;0.69;359.60;;;;;20.30;1.00;;;;;;2260108;61;1412;-86
2022/09/23 17:44:55;767061.00;2.56;1323.74;3117.00;0.01;6.02;;;;;20.30;1.00;;;;;;2259878;61;1139;-85
2022/09/23 17:47:22;583726.00;1.95;1006.13;0.00;0.00;0.62;;;;;20.00;1.00;;;;;;2260078;61;1157;-85
2022/09/23 17:49:49;274516.00;0.92;474.11;0.00;0.00;0.62;;;;;20.10;1.00;;;;;;2260109;61;1124;-85
2022/09/23 17:52:18;784414.00;2.61;1353.96;20496.00;0.07;36.13;;;;;20.00;1.00;;;;;;2260042;61;1391;-85
2022/09/23 17:54:45;497585.00;1.66;857.67;0.00;0.00;0.62;;;;;20.00;1.00;;;;;;2260042;61;1140;-86
2022/09/23 17:57:12;513875.00;1.71;885.72;0.00;0.00;0.62;;;;;19.80;1.00;;;;;;2260234;61;905;-86
2022/09/23 17:59:39;635855.00;2.12;1096.17;0.00;0.00;0.62;;;;;19.80;1.00;;;;;;2259996;61;1997;-85
2022/09/23 18:02:06;470118.00;1.57;810.39;0.00;0.00;0.62;;;;;19.80;1.00;;;;;;2260027;61;1256;-84
2022/09/23 18:04:33;442166.00;1.47;762.31;0.00;0.00;0.62;;;;;19.80;1.00;;;;;;2259881;61;1032;-85
2022/09/23 18:07:00;516815.00;1.72;890.78;0.00;0.00;0.62;;;;;19.80;1.00;;;;;;2260044;61;1126;-85
2022/09/23 18:09:28;645299.00;2.15;1112.50;0.00;0.00;0.62;;;;;19.60;1.00;;;;;;2260029;61;1046;-88
2022/09/23 18:11:56;555683.00;1.85;957.76;0.00;0.00;0.62;;;;;19.50;1.00;;;;;;2260655;61;1412;-86
2022/09/23 18:14:23;480386.00;1.60;828.06;0.00;0.00;0.62;;;;;19.40;1.00;;;;;;2260760;61;1257;-86
2022/09/23 18:16:52;463370.00;1.54;798.78;0.00;0.00;0.62;;;;;19.30;1.00;;;;;;2260668;61;1144;-84
2022/09/23 18:19:21;501388.00;1.67;864.21;0.00;0.00;0.62;;;;;19.10;1.00;;;;;;2260740;61;2007;-84
2022/09/23 18:21:50;367862.00;1.23;634.56;14989.00;0.05;26.59;;;;;19.10;1.00;;;;;;2260711;61;1430;-86
2022/09/23 18:24:18;337678.00;1.13;582.68;0.00;0.00;0.62;;;;;18.90;1.00;;;;;;2260663;61;1103;-84
2022/09/23 18:26:48;590753.00;1.97;1018.26;0.00;0.00;0.62;;;;;18.90;1.00;;;;;;2260610;61;953;-85
2022/09/23 18:29:16;347723.00;1.16;599.95;0.00;0.00;0.62;;;;;18.80;1.00;;;;;;2260542;61;1046;-84
2022/09/23 18:31:44;724319.00;2.41;1249.44;69187.00;0.23;120.36;;;;;18.80;1.00;;;;;;2260623;61;1381;-84
2022/09/23 18:34:12;539554.00;1.80;929.95;0.00;0.00;0.62;;;;;18.80;1.00;;;;;;2260590;61;980;-85
2022/09/23 18:36:40;480757.00;1.60;828.70;0.00;0.00;0.62;;;;;18.60;1.00;;;;;;2260630;61;1053;-84
2022/09/23 18:41:35;556675.00;1.86;959.47;0.00;0.00;0.62;;;;;18.60;1.00;;;;;;2270320;61;1409;-86
2022/09/23 18:44:04;569981.00;1.90;982.41;43737.00;0.15;76.35;;;;;18.50;1.00;;;;;;2268646;61;1079;-86
2022/09/23 18:46:32;426739.00;1.42;735.78;0.00;0.00;0.62;;;;;18.50;1.00;;;;;;2268542;61;1050;-85
2022/09/23 18:51:49;499269.00;1.66;860.57;0.00;0.00;0.62;;;;;18.60;1.00;;;;;;2268602;61;1408;-85
2022/09/23 18:54:16;639955.00;2.13;1103.26;0.00;0.00;0.62;;;;;18.50;1.00;;;;;;2268604;61;1153;-85
2022/09/23 18:56:45;769322.00;2.56;1327.67;45400.00;0.15;79.23;;;;;18.60;1.00;;;;;;2268624;61;1747;-85
2022/09/23 18:59:16;551376.00;1.84;950.33;0.00;0.00;0.62;;;;;18.70;1.00;;;;;;2268421;61;1998;-85